createdAt,value
2023-02-27T00:00:47.104Z,11.60
2023-02-27T00:03:17.613Z,12.80
2023-02-27T00:05:48.095Z,12.70
2023-02-27T00:08:18.556Z,10.40
2023-02-27T00:10:48.980Z,10.10
2023-02-27T00:13:20.839Z,10.50
2023-02-27T00:15:51.888Z,11.20
2023-02-27T00:18:22.404Z,11.70
2023-02-27T00:20:52.813Z,13.10
2023-02-27T00:23:23.242Z,8.70
2023-02-27T00:25:54.858Z,9.40
2023-02-27T00:28:25.858Z,8.90
2023-02-27T00:30:56.496Z,10.30
2023-02-27T00:33:26.948Z,8.70
2023-02-27T00:36:01.969Z,9.10
2023-02-27T00:38:32.617Z,11.00
2023-02-27T00:41:03.359Z,9.30
2023-02-27T00:43:33.804Z,11.50
2023-02-27T00:46:05.334Z,11.00
2023-02-27T00:48:35.940Z,10.10
2023-02-27T00:51:06.978Z,11.60
2023-02-27T00:53:37.494Z,11.70
2023-02-27T00:56:09.084Z,12.30
2023-02-27T00:58:39.568Z,9.50
2023-02-27T01:01:10.133Z,8.90
2023-02-27T01:03:40.795Z,12.20
2023-02-27T01:06:11.485Z,9.70
2023-02-27T01:08:41.945Z,10.50
2023-02-27T01:11:12.422Z,10.40
2023-02-27T01:13:44.355Z,8.90
2023-02-27T01:16:15.515Z,11.30
2023-02-27T01:18:46.141Z,7.80
2023-02-27T01:21:16.996Z,10.80
2023-02-27T01:23:48.856Z,10.80
2023-02-27T01:26:23.784Z,8.10
2023-02-27T01:28:54.297Z,8.60
2023-02-27T01:31:25.111Z,7.30
2023-02-27T01:33:57.888Z,10.70
2023-02-27T01:36:28.460Z,9.10
2023-02-27T01:38:58.924Z,7.50
2023-02-27T01:41:29.890Z,9.80
2023-02-27T01:44:03.403Z,8.20
2023-02-27T01:46:34.956Z,9.70
2023-02-27T01:49:10.731Z,8.10
2023-02-27T01:51:44.603Z,8.70
2023-02-27T01:54:18.603Z,8.90
2023-02-27T01:56:49.540Z,7.90
2023-02-27T01:59:21.220Z,9.10
2023-02-27T02:01:54.373Z,7.20
2023-02-27T02:04:28.330Z,9.00
2023-02-27T02:07:04.368Z,12.90
2023-02-27T02:09:37.258Z,7.20
2023-02-27T02:12:09.210Z,9.60
2023-02-27T02:14:39.740Z,9.50
2023-02-27T02:17:17.126Z,6.30
2023-02-27T02:20:02.632Z,9.50
2023-02-27T02:22:59.967Z,8.30
2023-02-27T02:25:59.790Z,6.10
2023-02-27T02:28:57.506Z,8.40
2023-02-27T02:34:52.915Z,7.10
2023-02-27T02:37:59.167Z,8.20
2023-02-27T02:40:40.355Z,6.70
2023-02-27T02:43:17.945Z,8.30
2023-02-27T02:45:56.260Z,7.30
2023-02-27T02:48:33.161Z,6.90
2023-02-27T02:51:16.777Z,8.30
2023-02-27T02:53:54.373Z,7.90
2023-02-27T02:56:30.418Z,6.30
2023-02-27T02:59:05.774Z,7.80
2023-02-27T03:01:42.083Z,7.40
2023-02-27T03:04:19.489Z,7.40
2023-02-27T03:06:55.097Z,7.40
2023-02-27T03:09:31.446Z,5.60
2023-02-27T03:12:04.235Z,7.70
2023-02-27T03:14:40.876Z,6.90
2023-02-27T03:17:16.563Z,7.80
2023-02-27T03:19:55.078Z,6.50
2023-02-27T03:22:31.228Z,7.70
2023-02-27T03:25:04.309Z,6.30
2023-02-27T03:27:39.457Z,8.30
2023-02-27T03:30:17.141Z,5.80
2023-02-27T03:32:56.897Z,6.60
2023-02-27T03:35:33.987Z,5.50
2023-02-27T03:38:12.964Z,6.70
2023-02-27T03:40:50.700Z,4.90
2023-02-27T03:43:32.112Z,9.20
2023-02-27T03:46:09.611Z,8.30
2023-02-27T03:48:44.454Z,7.40
2023-02-27T03:51:18.303Z,5.30
2023-02-27T03:53:56.317Z,5.10
2023-02-27T03:56:30.752Z,7.20
2023-02-27T03:59:01.879Z,7.00
2023-02-27T04:01:33.174Z,10.80
2023-02-27T04:04:09.208Z,6.50
2023-02-27T04:07:21.199Z,6.30
2023-02-27T04:10:15.700Z,6.50
2023-02-27T04:13:28.818Z,6.60
2023-02-27T04:16:20.964Z,5.10
2023-02-27T04:19:04.795Z,5.60
2023-02-27T04:21:42.819Z,7.40
2023-02-27T04:24:22.210Z,5.10
2023-02-27T04:26:56.972Z,5.70
2023-02-27T04:29:38.464Z,8.20
2023-02-27T04:32:17.023Z,7.80
2023-02-27T04:34:53.265Z,8.40
2023-02-27T04:37:28.886Z,7.70
2023-02-27T04:40:06.649Z,6.70
2023-02-27T04:42:39.973Z,7.20
2023-02-27T04:45:16.141Z,6.20
2023-02-27T04:47:52.732Z,7.20
2023-02-27T04:50:28.681Z,5.80
2023-02-27T04:53:04.085Z,16.00
2023-02-27T04:55:37.417Z,8.80
2023-02-27T04:58:13.924Z,8.80
2023-02-27T05:00:49.226Z,6.60
2023-02-27T05:03:25.583Z,6.00
2023-02-27T05:05:59.449Z,7.20
2023-02-27T05:08:34.978Z,7.50
2023-02-27T05:11:10.606Z,8.80
2023-02-27T05:13:46.881Z,18.20
2023-02-27T05:16:22.260Z,11.40
2023-02-27T05:18:53.081Z,6.80
2023-02-27T05:21:29.221Z,7.00
2023-02-27T05:24:12.532Z,7.40
2023-02-27T05:26:56.156Z,7.70
2023-02-27T05:29:37.369Z,7.70
2023-02-27T05:32:17.914Z,6.60
2023-02-27T05:34:53.917Z,6.20
2023-02-27T05:37:30.738Z,6.10
2023-02-27T05:40:06.185Z,7.10
2023-02-27T05:42:41.739Z,5.60
2023-02-27T05:45:16.255Z,6.10
2023-02-27T05:47:53.866Z,8.00
2023-02-27T05:50:27.535Z,6.80
2023-02-27T05:53:03.908Z,6.20
2023-02-27T05:55:39.002Z,6.80
2023-02-27T05:58:16.949Z,9.70
2023-02-27T06:00:52.031Z,6.70
2023-02-27T06:03:23.048Z,8.20
2023-02-27T06:05:54.896Z,10.50
2023-02-27T06:08:26.293Z,7.50
2023-02-27T06:10:56.735Z,5.50
2023-02-27T06:13:27.209Z,9.10
2023-02-27T06:15:57.697Z,7.40
2023-02-27T06:18:28.375Z,9.50
2023-02-27T06:20:58.886Z,5.30
2023-02-27T06:23:29.370Z,6.90
2023-02-27T06:26:00.593Z,6.60
2023-02-27T06:28:31.354Z,7.90
2023-02-27T06:31:02.062Z,6.30
2023-02-27T06:33:33.293Z,7.00
2023-02-27T06:36:03.832Z,5.90
2023-02-27T06:38:34.852Z,5.80
2023-02-27T06:41:05.572Z,6.30
2023-02-27T06:43:37.207Z,6.90
2023-02-27T06:46:08.175Z,7.10
2023-02-27T06:48:38.662Z,6.60
2023-02-27T06:51:09.315Z,5.70
2023-02-27T06:53:39.763Z,7.80
2023-02-27T06:56:11.023Z,6.30
2023-02-27T06:58:41.473Z,6.50
2023-02-27T07:01:13.479Z,8.20
2023-02-27T07:03:43.991Z,5.80
2023-02-27T07:06:15.010Z,5.50
2023-02-27T07:09:01.513Z,7.10
2023-02-27T07:11:36.534Z,6.50
2023-02-27T07:14:07.476Z,8.60
2023-02-27T07:16:37.892Z,8.40
2023-02-27T07:19:08.860Z,5.00
2023-02-27T07:21:39.859Z,5.10
2023-02-27T07:24:11.225Z,6.60
2023-02-27T07:26:41.648Z,5.60
2023-02-27T07:29:12.125Z,6.80
2023-02-27T07:31:42.824Z,6.70
2023-02-27T07:34:13.874Z,6.50
2023-02-27T07:36:44.426Z,6.30
2023-02-27T07:39:15.835Z,5.10
2023-02-27T07:41:46.257Z,5.20
2023-02-27T07:44:20.761Z,5.70
2023-02-27T07:46:51.598Z,7.00
2023-02-27T07:49:22.210Z,5.60
2023-02-27T07:51:52.685Z,7.60
2023-02-27T07:54:23.215Z,7.40
2023-02-27T07:56:53.678Z,5.10
2023-02-27T07:59:24.151Z,5.80
2023-02-27T08:01:54.648Z,6.20
2023-02-27T08:04:25.593Z,6.70
2023-02-27T08:06:56.194Z,9.20
2023-02-27T08:09:26.607Z,6.50
2023-02-27T08:11:57.235Z,5.00
2023-02-27T08:14:27.862Z,8.10
2023-02-27T08:16:58.315Z,7.90
2023-02-27T08:19:28.905Z,6.10
2023-02-27T08:21:59.473Z,5.10
2023-02-27T08:24:30.308Z,6.10
2023-02-27T08:27:00.729Z,6.60
2023-02-27T08:29:32.987Z,6.40
2023-02-27T08:32:04.782Z,8.30
2023-02-27T08:34:35.238Z,8.10
2023-02-27T08:37:06.006Z,6.90
2023-02-27T08:39:36.478Z,7.00
2023-02-27T08:42:07.781Z,6.60
2023-02-27T08:44:38.297Z,4.70
2023-02-27T08:47:08.818Z,7.00
2023-02-27T08:49:39.301Z,9.70
2023-02-27T08:52:10.109Z,6.20
2023-02-27T08:54:40.557Z,7.40
2023-02-27T08:57:11.020Z,7.40
2023-02-27T08:59:41.440Z,6.70
2023-02-27T09:02:12.562Z,5.30
2023-02-27T09:04:42.987Z,6.00
2023-02-27T09:07:13.412Z,5.90
2023-02-27T09:09:43.831Z,6.60
2023-02-27T09:12:14.282Z,4.30
2023-02-27T09:14:44.894Z,5.60
2023-02-27T09:17:15.302Z,5.10
2023-02-27T09:19:46.605Z,6.50
2023-02-27T09:22:17.007Z,6.10
2023-02-27T09:24:47.469Z,5.10
2023-02-27T09:27:17.883Z,5.50
2023-02-27T09:29:48.983Z,5.80
2023-02-27T09:32:19.438Z,5.70
2023-02-27T09:34:50.445Z,4.90
2023-02-27T09:37:21.283Z,5.80
2023-02-27T09:39:51.834Z,5.60
2023-02-27T09:42:24.784Z,6.70
2023-02-27T09:44:58.186Z,7.00
2023-02-27T09:47:34.869Z,5.10
2023-02-27T09:50:09.160Z,5.70
2023-02-27T09:52:40.538Z,5.00
2023-02-27T09:55:18.812Z,7.20
2023-02-27T09:57:56.441Z,9.20
2023-02-27T10:00:49.197Z,5.40
2023-02-27T10:03:39.597Z,5.80
2023-02-27T10:06:24.032Z,11.20
2023-02-27T10:09:05.559Z,6.00
2023-02-27T10:11:45.720Z,4.80
2023-02-27T10:14:29.552Z,5.50
2023-02-27T10:17:03.965Z,5.30
2023-02-27T10:19:38.668Z,6.90
2023-02-27T10:22:15.672Z,6.00
2023-02-27T10:24:53.054Z,5.20
2023-02-27T10:27:24.489Z,5.90
2023-02-27T10:29:59.334Z,7.50
2023-02-27T10:32:34.064Z,6.90
2023-02-27T10:35:10.513Z,5.90
2023-02-27T10:37:47.602Z,5.20
2023-02-27T10:40:20.647Z,4.90
2023-02-27T10:42:52.665Z,4.90
2023-02-27T10:45:23.079Z,5.80
2023-02-27T10:47:53.627Z,6.30
2023-02-27T10:50:27.544Z,7.30
2023-02-27T10:53:00.708Z,6.70
2023-02-27T10:55:33.641Z,7.80
2023-02-27T10:58:06.099Z,6.20
2023-02-27T11:00:45.113Z,6.50
2023-02-27T11:03:28.944Z,7.20
2023-02-27T11:06:02.794Z,6.30
2023-02-27T11:08:35.028Z,7.90
2023-02-27T11:13:38.449Z,4.60
2023-02-27T11:16:14.095Z,5.90
2023-02-27T11:18:45.650Z,5.80
2023-02-27T11:21:26.205Z,7.00
2023-02-27T11:24:02.555Z,6.10
2023-02-27T11:26:36.351Z,6.30
2023-02-27T11:29:18.425Z,8.00
2023-02-27T11:31:53.470Z,6.10
2023-02-27T11:34:28.067Z,5.60
2023-02-27T11:37:01.874Z,6.30
2023-02-27T11:39:48.806Z,6.60
2023-02-27T11:42:25.713Z,6.10
2023-02-27T11:45:00.896Z,5.80
2023-02-27T11:47:35.509Z,5.30
2023-02-27T11:50:26.577Z,6.50
2023-02-27T11:53:04.472Z,6.70
2023-02-27T11:55:35.540Z,5.00
2023-02-27T11:58:14.911Z,6.40
2023-02-27T12:00:50.553Z,6.20
2023-02-27T12:03:26.314Z,7.40
2023-02-27T12:06:01.032Z,6.70
2023-02-27T12:08:36.994Z,7.70
2023-02-27T12:11:14.950Z,4.20
2023-02-27T12:13:50.672Z,5.80
2023-02-27T12:16:32.271Z,7.10
2023-02-27T12:19:13.754Z,7.40
2023-02-27T12:21:49.723Z,8.00
2023-02-27T12:24:25.844Z,7.90
2023-02-27T12:27:07.573Z,5.50
2023-02-27T12:29:42.953Z,6.10
2023-02-27T12:32:19.178Z,7.10
2023-02-27T12:34:53.091Z,5.70
2023-02-27T12:37:26.657Z,8.30
2023-02-27T12:40:00.054Z,10.90
2023-02-27T12:42:47.680Z,8.60
2023-02-27T12:45:41.789Z,7.70
2023-02-27T12:48:19.967Z,12.70
2023-02-27T12:50:59.292Z,29.60
2023-02-27T12:53:49.193Z,20.50
2023-02-27T12:56:22.809Z,14.80
2023-02-27T12:59:01.533Z,12.20
2023-02-27T13:01:44.322Z,15.10
2023-02-27T13:04:25.093Z,8.40
2023-02-27T13:07:04.288Z,8.20
2023-02-27T13:09:45.431Z,12.10
2023-02-27T13:12:25.077Z,9.90
2023-02-27T13:15:02.315Z,10.20
2023-02-27T13:17:40.233Z,14.80
2023-02-27T13:20:30.855Z,11.80
2023-02-27T13:23:13.139Z,12.30
2023-02-27T13:25:46.996Z,11.40
2023-02-27T13:28:20.951Z,10.80
2023-02-27T13:31:05.570Z,7.00
2023-02-27T13:33:45.229Z,24.00
2023-02-27T13:36:23.934Z,15.80
2023-02-27T13:38:56.375Z,10.30
2023-02-27T13:41:40.424Z,8.20
2023-02-27T13:44:41.070Z,7.20
2023-02-27T13:47:43.525Z,6.20
2023-02-27T13:50:51.474Z,5.70
2023-02-27T13:53:24.591Z,6.40
2023-02-27T13:56:18.726Z,9.00
2023-02-27T13:58:49.752Z,8.80
2023-02-27T14:01:28.476Z,8.10
2023-02-27T14:04:04.722Z,8.80
2023-02-27T14:06:44.295Z,7.00
2023-02-27T14:09:20.129Z,7.50
2023-02-27T14:11:59.100Z,7.60
2023-02-27T14:14:46.313Z,9.80
2023-02-27T14:17:45.261Z,7.20
2023-02-27T14:20:36.768Z,7.60
2023-02-27T14:23:23.759Z,10.30
2023-02-27T14:25:56.595Z,9.70
2023-02-27T14:28:31.655Z,36.00
2023-02-27T14:31:05.848Z,11.20
2023-02-27T14:33:45.489Z,10.20
2023-02-27T14:36:21.661Z,11.20
2023-02-27T14:38:55.472Z,7.40
2023-02-27T14:41:40.248Z,9.60
2023-02-27T14:44:21.159Z,9.50
2023-02-27T14:46:53.864Z,11.50
2023-02-27T14:49:28.286Z,9.00
2023-02-27T14:52:12.579Z,10.70
2023-02-27T14:54:45.079Z,7.60
2023-02-27T14:57:21.058Z,7.20
2023-02-27T14:59:55.226Z,6.80
2023-02-27T15:02:28.567Z,6.70
2023-02-27T15:05:16.990Z,7.60
2023-02-27T15:07:49.269Z,12.70
2023-02-27T15:12:52.436Z,11.40
2023-02-27T15:15:23.836Z,10.60
2023-02-27T15:17:55.951Z,14.50
2023-02-27T15:20:30.088Z,11.70
2023-02-27T15:23:02.588Z,12.30
2023-02-27T15:25:36.631Z,11.40
2023-02-27T15:28:14.911Z,9.10
2023-02-27T15:30:50.406Z,9.10
2023-02-27T15:33:25.412Z,9.30
2023-02-27T15:35:56.267Z,9.10
2023-02-27T15:38:29.469Z,10.70
2023-02-27T15:41:02.603Z,10.80
2023-02-27T15:43:33.967Z,10.00
2023-02-27T15:46:05.007Z,9.00
2023-02-27T15:48:35.839Z,8.30
2023-02-27T15:51:10.163Z,24.40
2023-02-27T15:53:48.999Z,15.80
2023-02-27T15:56:23.972Z,12.10
2023-02-27T15:59:00.259Z,9.20
2023-02-27T16:01:34.951Z,9.60
2023-02-27T16:04:14.841Z,10.10
2023-02-27T16:06:52.010Z,8.00
2023-02-27T16:09:30.261Z,10.80
2023-02-27T16:12:24.887Z,19.60
2023-02-27T16:15:12.898Z,10.00
2023-02-27T16:17:55.622Z,9.30
2023-02-27T16:20:39.083Z,10.20
2023-02-27T16:23:23.603Z,7.50
2023-02-27T16:26:06.328Z,10.10
2023-02-27T16:28:51.087Z,9.10
2023-02-27T16:31:30.496Z,10.80
2023-02-27T16:34:03.609Z,9.00
2023-02-27T16:36:35.055Z,11.70
2023-02-27T16:39:06.195Z,8.80
2023-02-27T16:41:37.036Z,11.60
2023-02-27T16:44:07.857Z,12.00
2023-02-27T16:46:38.904Z,11.10
2023-02-27T16:49:20.175Z,11.40
2023-02-27T16:51:51.921Z,10.70
2023-02-27T16:54:23.208Z,9.50
2023-02-27T16:56:53.736Z,13.90
2023-02-27T16:59:31.578Z,10.10
2023-02-27T17:02:04.134Z,10.20
2023-02-27T17:04:36.334Z,9.80
2023-02-27T17:07:07.037Z,10.90
2023-02-27T17:09:37.440Z,10.20
2023-02-27T17:12:08.129Z,10.40
2023-02-27T17:14:38.845Z,9.20
2023-02-27T17:17:11.091Z,12.50
2023-02-27T17:19:41.629Z,12.30
2023-02-27T17:22:12.358Z,13.00
2023-02-27T17:24:42.860Z,12.70
2023-02-27T17:27:13.277Z,14.30
2023-02-27T17:29:43.843Z,21.40
2023-02-27T17:32:14.628Z,15.30
2023-02-27T17:34:45.154Z,18.50
2023-02-27T17:37:15.580Z,27.20
2023-02-27T17:39:46.014Z,16.90
2023-02-27T17:42:18.644Z,12.00
2023-02-27T17:44:49.681Z,14.00
2023-02-27T17:47:20.661Z,13.40
2023-02-27T17:49:51.128Z,16.90
2023-02-27T17:52:22.257Z,12.60
2023-02-27T17:54:52.881Z,14.30
2023-02-27T17:57:23.331Z,21.10
2023-02-27T17:59:53.746Z,15.30
2023-02-27T18:02:24.230Z,16.30
2023-02-27T18:04:55.026Z,16.50
2023-02-27T18:07:25.498Z,25.30
2023-02-27T18:09:55.987Z,20.10
2023-02-27T18:12:26.443Z,15.50
2023-02-27T18:14:57.336Z,16.70
2023-02-27T18:17:28.102Z,13.30
2023-02-27T18:19:59.020Z,16.50
2023-02-27T18:22:32.946Z,15.60
2023-02-27T18:25:03.404Z,14.30
2023-02-27T18:27:34.072Z,13.50
2023-02-27T18:30:04.903Z,15.70
2023-02-27T18:32:35.359Z,15.10
2023-02-27T18:35:06.950Z,15.50
2023-02-27T18:37:37.469Z,17.90
2023-02-27T18:40:11.995Z,15.30
2023-02-27T18:42:43.255Z,14.50
2023-02-27T18:45:14.578Z,13.30
2023-02-27T18:47:45.181Z,16.50
2023-02-27T18:50:15.937Z,15.70
2023-02-27T18:52:47.414Z,15.70
2023-02-27T18:55:18.596Z,15.00
2023-02-27T18:57:51.014Z,13.00
2023-02-27T19:02:52.535Z,15.00
2023-02-27T19:05:23.111Z,11.00
2023-02-27T19:07:53.559Z,11.30
2023-02-27T19:10:23.989Z,13.20
2023-02-27T19:12:54.803Z,11.40
2023-02-27T19:15:25.210Z,13.10
2023-02-27T19:17:55.662Z,11.30
2023-02-27T19:20:26.130Z,12.50
2023-02-27T19:22:56.529Z,11.30
2023-02-27T19:25:27.252Z,15.50
2023-02-27T19:28:00.428Z,14.90
2023-02-27T19:30:30.831Z,12.50
2023-02-27T19:33:01.462Z,15.90
2023-02-27T19:35:31.928Z,13.20
2023-02-27T19:38:02.477Z,12.30
2023-02-27T19:40:32.893Z,12.60
2023-02-27T19:43:03.366Z,9.60
2023-02-27T19:45:33.924Z,11.60
2023-02-27T19:48:04.379Z,13.50
2023-02-27T19:50:34.777Z,11.90
2023-02-27T19:53:05.441Z,10.30
2023-02-27T19:55:35.887Z,12.90
2023-02-27T19:58:06.530Z,12.00
2023-02-27T20:00:36.933Z,12.30
2023-02-27T20:03:07.501Z,12.80
2023-02-27T20:05:41.027Z,14.10
2023-02-27T20:08:11.469Z,14.10
2023-02-27T20:10:43.110Z,16.20
2023-02-27T20:13:14.922Z,14.10
2023-02-27T20:15:45.338Z,17.60
2023-02-27T20:18:15.753Z,15.20
2023-02-27T20:20:46.187Z,15.80
2023-02-27T20:23:17.240Z,17.50
2023-02-27T20:25:47.684Z,17.70
2023-02-27T20:28:18.138Z,16.20
2023-02-27T20:30:48.712Z,21.70
2023-02-27T20:33:19.185Z,15.70
2023-02-27T20:35:49.704Z,19.80
2023-02-27T20:38:22.750Z,21.30
2023-02-27T20:40:57.628Z,17.30
2023-02-27T20:43:28.776Z,20.20
2023-02-27T20:46:02.720Z,15.10
2023-02-27T20:48:33.574Z,17.00
2023-02-27T20:51:10.283Z,18.30
2023-02-27T20:53:43.031Z,17.60
2023-02-27T20:56:13.839Z,19.80
2023-02-27T20:58:44.336Z,20.50
2023-02-27T21:01:16.106Z,19.10
2023-02-27T21:03:50.413Z,18.40
2023-02-27T21:06:21.012Z,21.50
2023-02-27T21:08:53.943Z,18.80
2023-02-27T21:11:27.399Z,20.30
2023-02-27T21:13:59.172Z,22.00
2023-02-27T21:16:29.612Z,22.60
2023-02-27T21:19:00.274Z,20.30
2023-02-27T21:21:32.481Z,21.70
2023-02-27T21:24:03.756Z,18.90
2023-02-27T21:26:37.910Z,20.70
2023-02-27T21:29:10.735Z,20.40
2023-02-27T21:31:45.054Z,18.10
2023-02-27T21:34:17.724Z,25.50
2023-02-27T21:36:49.046Z,21.20
2023-02-27T21:39:22.116Z,20.70
2023-02-27T21:41:52.927Z,23.90
2023-02-27T21:44:25.370Z,20.90
2023-02-27T21:46:56.651Z,23.60
2023-02-27T21:49:31.191Z,21.50
2023-02-27T21:52:01.618Z,22.60
2023-02-27T21:54:32.389Z,23.30
2023-02-27T21:57:03.287Z,23.80
2023-02-27T21:59:34.251Z,19.80
2023-02-27T22:02:04.698Z,20.10
2023-02-27T22:04:35.101Z,19.30
2023-02-27T22:07:05.546Z,23.70
2023-02-27T22:09:35.971Z,21.40
2023-02-27T22:12:07.530Z,20.00
2023-02-27T22:14:37.939Z,22.80
2023-02-27T22:17:08.478Z,21.60
2023-02-27T22:19:39.008Z,18.10
2023-02-27T22:22:09.441Z,19.50
2023-02-27T22:24:39.933Z,18.10
2023-02-27T22:27:10.511Z,19.90
2023-02-27T22:29:42.348Z,19.60
2023-02-27T22:32:13.763Z,17.90
2023-02-27T22:34:44.206Z,34.20
2023-02-27T22:37:16.201Z,23.90
2023-02-27T22:39:46.757Z,20.00
2023-02-27T22:42:17.193Z,19.00
2023-02-27T22:44:47.647Z,14.70
2023-02-27T22:47:18.071Z,17.00
2023-02-27T22:49:50.948Z,17.60
2023-02-27T22:52:21.798Z,17.10
2023-02-27T22:54:53.152Z,20.50
2023-02-27T22:57:23.642Z,19.20
2023-02-27T22:59:54.033Z,14.60
2023-02-27T23:02:24.593Z,19.70
2023-02-27T23:04:55.018Z,18.40
2023-02-27T23:07:25.420Z,19.60
2023-02-27T23:09:55.861Z,17.50
2023-02-27T23:12:27.490Z,16.60
2023-02-27T23:14:58.301Z,16.10
2023-02-27T23:17:28.739Z,16.80
2023-02-27T23:19:59.209Z,16.90
2023-02-27T23:22:33.469Z,14.50
2023-02-27T23:25:07.284Z,19.50
2023-02-27T23:27:37.692Z,21.20
2023-02-27T23:30:10.884Z,16.40
2023-02-27T23:32:43.796Z,16.80
2023-02-27T23:35:16.301Z,16.70
2023-02-27T23:37:46.753Z,15.20
2023-02-27T23:40:18.001Z,16.70
2023-02-27T23:42:48.403Z,17.50
2023-02-27T23:45:25.195Z,15.00
2023-02-27T23:47:57.712Z,15.20
2023-02-27T23:52:59.981Z,16.60
2023-02-27T23:55:33.915Z,16.60
2023-02-27T23:58:06.404Z,13.60
